Youngstown, OH (44501)

10:00 PM EST on December 05, 2016 (GMT -0500)
Downtown Youngstown | | Change Station

Elev 873 ft 41.10 °N, 80.65 °W | Updated 5 seconds ago

Scattered Clouds
Scattered Clouds
30.3 °F
Feels Like 30 °F
N
0.0
Wind Variable Wind from SE
Gusts 1.0 mph

Today
High -- | Low -- °F
--% Chance of Precip.
Yesterday
High -- | Low -- °F
Precip. -- in
Pressure 30.11 in
Visibility 10.0 miles
Clouds Scattered Clouds 25000 ft
Windchill 30 °F
Dew Point 27 °F
Humidity 88%
Rainfall in
Snow Depth Not available.
7:32 AM 4:53 PM
Waxing Crescent, 37% visible
METAR KYNG 060251Z 07004KT 10SM SCT250 M01/M03 A3008 RMK AO2 SLP195 T10111033 58001
Pressure 30.11 in
Visibility 10.0 miles
Clouds Scattered Clouds 25000 ft
Windchill 30 °F
Dew Point 27 °F
Humidity 88%
Rainfall in
Snow Depth Not available.
7:32 AM 4:53 PM
Waxing Crescent, 37% visible
METAR KYNG 060251Z 07004KT 10SM SCT250 M01/M03 A3008 RMK AO2 SLP195 T10111033 58001

10-Day Weather Forecast

Almanac

Astronomy

Dec. 05, 2016 Rise Set
Actual Time
Civil Twilight
Nautical Twilight
Astronomical Twilight
Moon
Length of Visible Light
Length of Day
Tomorrow will be .
, % of the Moon is Illuminated

Today's Extremes

State Highs State Lows

Community

WunderPhotos

Upload Photos

1,955,908 photos uploaded!

WunderBlog® & News

Nearby

Air Quality

  Air Quality AQ Index Pollutant
Not available.

Snow Depth

Station Depth Elevation

Earthquake Activity

City Distance Mag. Time & Date
Minimum magnitude displayed is 2.5.

Coastal Water Temperatures

Place Temperature

Stations

Nearby Weather Stations

Station Location Temp. Windchill Dew Point Humidity Wind Precip. Elev Updated Type
                   

Watches & Warnings

There are currently no watches in effect.